createdAt,value
2018-03-14T00:00:41.753Z,1006.64
2018-03-14T00:01:41.680Z,1006.64
2018-03-14T00:02:41.642Z,1006.66
2018-03-14T00:03:41.589Z,1006.66
2018-03-14T00:04:41.563Z,1006.69
2018-03-14T00:05:41.513Z,1006.63
2018-03-14T00:06:41.510Z,1006.62
2018-03-14T00:07:41.428Z,1006.63
2018-03-14T00:08:41.389Z,1006.69
2018-03-14T00:09:41.341Z,1006.69
2018-03-14T00:10:41.296Z,1006.65
2018-03-14T00:11:41.260Z,1006.72
2018-03-14T00:12:41.230Z,1006.68
2018-03-14T00:13:41.171Z,1006.71
2018-03-14T00:14:41.133Z,1006.75
2018-03-14T00:15:41.089Z,1006.79
2018-03-14T00:16:41.052Z,1006.73
2018-03-14T00:17:41.031Z,1006.75
2018-03-14T00:18:40.974Z,1006.70
2018-03-14T00:19:40.917Z,1006.69
2018-03-14T00:20:40.870Z,1006.64
2018-03-14T00:21:40.834Z,1006.60
2018-03-14T00:22:40.791Z,1006.64
2018-03-14T00:23:40.785Z,1006.65
2018-03-14T00:24:40.708Z,1006.67
2018-03-14T00:25:40.664Z,1006.70
2018-03-14T00:26:40.630Z,1006.76
2018-03-14T00:27:40.578Z,1006.74
2018-03-14T00:28:40.542Z,1006.78
2018-03-14T00:29:40.519Z,1006.77
2018-03-14T00:30:40.465Z,1006.82
2018-03-14T00:31:40.424Z,1006.79
2018-03-14T00:32:40.367Z,1006.78
2018-03-14T00:33:40.332Z,1006.78
2018-03-14T00:34:40.285Z,1006.74
2018-03-14T00:35:40.284Z,1006.67
2018-03-14T00:36:40.199Z,1006.69
2018-03-14T00:37:40.156Z,1006.65
2018-03-14T00:38:40.120Z,1006.69
2018-03-14T00:39:40.080Z,1006.74
2018-03-14T00:40:40.031Z,1006.81
2018-03-14T00:41:40.018Z,1006.81
2018-03-14T00:42:39.948Z,1006.80
2018-03-14T00:43:39.912Z,1006.78
2018-03-14T00:44:39.860Z,1006.79
2018-03-14T00:45:39.819Z,1006.87
2018-03-14T00:46:39.808Z,1006.84
2018-03-14T00:47:39.736Z,1006.84
2018-03-14T00:48:39.715Z,1006.80
2018-03-14T00:49:39.654Z,1006.85
2018-03-14T00:50:39.615Z,1006.87
2018-03-14T00:51:39.569Z,1006.84
2018-03-14T00:52:39.542Z,1006.85
2018-03-14T00:53:39.488Z,1006.86
2018-03-14T00:54:39.432Z,1006.84
2018-03-14T00:55:39.398Z,1006.83
2018-03-14T00:56:39.364Z,1006.82
2018-03-14T00:57:39.345Z,1006.83
2018-03-14T00:58:39.271Z,1006.85
2018-03-14T00:59:39.233Z,1006.83
2018-03-14T01:00:39.183Z,1006.80
2018-03-14T01:01:39.142Z,1006.83
2018-03-14T01:02:39.098Z,1006.81
2018-03-14T01:03:39.097Z,1006.83
2018-03-14T01:04:39.029Z,1006.77
2018-03-14T01:05:38.984Z,1006.76
2018-03-14T01:06:38.937Z,1006.75
2018-03-14T01:07:38.886Z,1006.78
2018-03-14T01:08:38.903Z,1006.81
2018-03-14T01:09:38.807Z,1006.79
2018-03-14T01:10:38.765Z,1006.78
2018-03-14T01:11:38.726Z,1006.80
2018-03-14T01:12:38.684Z,1006.78
2018-03-14T01:13:38.642Z,1006.80
2018-03-14T01:14:38.614Z,1006.78
2018-03-14T01:15:38.554Z,1006.79
2018-03-14T01:16:38.509Z,1006.76
2018-03-14T01:17:38.476Z,1006.76
2018-03-14T01:18:38.429Z,1006.75
2018-03-14T01:19:38.421Z,1006.77
2018-03-14T01:20:38.348Z,1006.76
2018-03-14T01:21:38.300Z,1006.71
2018-03-14T01:22:38.257Z,1006.70
2018-03-14T01:23:38.219Z,1006.72
2018-03-14T01:24:38.167Z,1006.69
2018-03-14T01:25:38.171Z,1006.72
2018-03-14T01:26:38.084Z,1006.69
2018-03-14T01:27:38.047Z,1006.67
2018-03-14T01:28:38.009Z,1006.68
2018-03-14T01:29:37.964Z,1006.70
2018-03-14T01:30:37.921Z,1006.71
2018-03-14T01:31:37.897Z,1006.68
2018-03-14T01:32:37.839Z,1006.68
2018-03-14T01:33:37.790Z,1006.65
2018-03-14T01:34:37.752Z,1006.67
2018-03-14T01:35:37.714Z,1006.69
2018-03-14T01:36:37.701Z,1006.70
2018-03-14T01:37:37.632Z,1006.67
2018-03-14T01:38:37.590Z,1006.72
2018-03-14T01:39:37.545Z,1006.68
2018-03-14T01:40:37.497Z,1006.66
2018-03-14T01:41:37.460Z,1006.65
2018-03-14T01:42:37.444Z,1006.64
2018-03-14T01:43:37.400Z,1006.60
2018-03-14T01:44:37.327Z,1006.60
2018-03-14T01:45:37.295Z,1006.63
2018-03-14T01:46:37.249Z,1006.66
2018-03-14T01:47:37.211Z,1006.64
2018-03-14T01:48:37.194Z,1006.62
2018-03-14T01:49:37.122Z,1006.63
2018-03-14T01:50:37.083Z,1006.67
2018-03-14T01:51:37.031Z,1006.66
2018-03-14T01:52:36.992Z,1006.61
2018-03-14T01:53:36.963Z,1006.63
2018-03-14T01:54:36.946Z,1006.61
2018-03-14T01:55:36.866Z,1006.63
2018-03-14T01:56:36.819Z,1006.68
2018-03-14T01:57:36.787Z,1006.65
2018-03-14T01:58:36.744Z,1006.63
2018-03-14T01:59:36.701Z,1006.64
2018-03-14T02:00:36.696Z,1006.61
2018-03-14T02:01:36.612Z,1006.61
2018-03-14T02:02:36.572Z,1006.60
2018-03-14T02:03:36.558Z,1006.59
2018-03-14T02:04:36.497Z,1006.56
2018-03-14T02:05:36.447Z,1006.60
2018-03-14T02:06:36.426Z,1006.54
2018-03-14T02:07:36.405Z,1006.58
2018-03-14T02:08:36.329Z,1006.55
2018-03-14T02:09:36.285Z,1006.54
2018-03-14T02:10:36.232Z,1006.54
2018-03-14T02:11:36.222Z,1006.55
2018-03-14T02:12:36.149Z,1006.55
2018-03-14T02:13:36.135Z,1006.55
2018-03-14T02:14:36.066Z,1006.54
2018-03-14T02:15:36.034Z,1006.58
2018-03-14T02:16:35.974Z,1006.58
2018-03-14T02:17:35.973Z,1006.57
2018-03-14T02:18:35.897Z,1006.57
2018-03-14T02:19:35.866Z,1006.58
2018-03-14T02:20:35.816Z,1006.58
2018-03-14T02:21:35.787Z,1006.59
2018-03-14T02:22:35.753Z,1006.60
2018-03-14T02:23:35.680Z,1006.60
2018-03-14T02:24:35.651Z,1006.62
2018-03-14T02:25:35.621Z,1006.60
2018-03-14T02:26:35.565Z,1006.62
2018-03-14T02:27:35.547Z,1006.62
2018-03-14T02:28:35.474Z,1006.61
2018-03-14T02:29:35.448Z,1006.57
2018-03-14T02:30:35.395Z,1006.62
2018-03-14T02:31:35.357Z,1006.62
2018-03-14T02:32:35.316Z,1006.60
2018-03-14T02:33:35.290Z,1006.60
2018-03-14T02:34:35.229Z,1006.60
2018-03-14T02:35:35.185Z,1006.62
2018-03-14T02:36:35.148Z,1006.59
2018-03-14T02:37:35.108Z,1006.59
2018-03-14T02:38:35.084Z,1006.59
2018-03-14T02:39:35.013Z,1006.56
2018-03-14T02:40:34.973Z,1006.58
2018-03-14T02:41:34.942Z,1006.56
2018-03-14T02:42:34.887Z,1006.58
2018-03-14T02:43:34.870Z,1006.56
2018-03-14T02:44:34.812Z,1006.54
2018-03-14T02:45:34.768Z,1006.56
2018-03-14T02:46:34.722Z,1006.59
2018-03-14T02:47:34.687Z,1006.59
2018-03-14T02:48:34.640Z,1006.57
2018-03-14T02:49:34.631Z,1006.60
2018-03-14T02:50:34.552Z,1006.59
2018-03-14T02:51:34.512Z,1006.57
2018-03-14T02:52:34.465Z,1006.56
2018-03-14T02:53:34.426Z,1006.56
2018-03-14T02:54:34.387Z,1006.53
2018-03-14T02:55:34.371Z,1006.55
2018-03-14T02:56:34.311Z,1006.50
2018-03-14T02:57:34.263Z,1006.47
2018-03-14T02:58:34.228Z,1006.50
2018-03-14T02:59:34.176Z,1006.50
2018-03-14T03:00:34.164Z,1006.52
2018-03-14T03:01:34.093Z,1006.49
2018-03-14T03:02:34.060Z,1006.54
2018-03-14T03:03:34.009Z,1006.52
2018-03-14T03:04:33.974Z,1006.55
2018-03-14T03:05:33.925Z,1006.54
2018-03-14T03:06:33.918Z,1006.54
2018-03-14T03:07:33.851Z,1006.55
2018-03-14T03:08:33.811Z,1006.55
2018-03-14T03:09:33.768Z,1006.54
2018-03-14T03:10:33.723Z,1006.58
2018-03-14T03:11:33.701Z,1006.52
2018-03-14T03:12:33.635Z,1006.55
2018-03-14T03:13:33.597Z,1006.54
2018-03-14T03:14:33.553Z,1006.56
2018-03-14T03:15:33.509Z,1006.57
2018-03-14T03:16:33.462Z,1006.55
2018-03-14T03:17:33.443Z,1006.55
2018-03-14T03:18:33.394Z,1006.59
2018-03-14T03:19:33.344Z,1006.58
2018-03-14T03:20:33.295Z,1006.58
2018-03-14T03:21:33.254Z,1006.54
2018-03-14T03:22:33.242Z,1006.55
2018-03-14T03:23:33.186Z,1006.56
2018-03-14T03:24:33.134Z,1006.59
2018-03-14T03:25:33.091Z,1006.57
2018-03-14T03:26:33.043Z,1006.55
2018-03-14T03:27:33.028Z,1006.58
2018-03-14T03:28:32.964Z,1006.60
2018-03-14T03:29:32.926Z,1006.64
2018-03-14T03:30:32.884Z,1006.65
2018-03-14T03:31:32.855Z,1006.66
2018-03-14T03:32:32.796Z,1006.65
2018-03-14T03:33:32.783Z,1006.63
2018-03-14T03:34:32.716Z,1006.65
2018-03-14T03:35:32.664Z,1006.64
2018-03-14T03:36:32.631Z,1006.66
2018-03-14T03:37:32.584Z,1006.68
2018-03-14T03:38:32.553Z,1006.64
2018-03-14T03:39:32.531Z,1006.64
2018-03-14T03:40:32.465Z,1006.65
2018-03-14T03:41:32.425Z,1006.64
2018-03-14T03:42:32.389Z,1006.65
2018-03-14T03:43:32.344Z,1006.65
2018-03-14T03:44:32.292Z,1006.60
2018-03-14T03:45:32.277Z,1006.64
2018-03-14T03:46:32.212Z,1006.67
2018-03-14T03:47:32.168Z,1006.65
2018-03-14T03:48:32.138Z,1006.63
2018-03-14T03:49:32.091Z,1006.67
2018-03-14T03:50:32.069Z,1006.63
2018-03-14T03:51:31.997Z,1006.64
2018-03-14T03:52:31.965Z,1006.64
2018-03-14T03:53:31.924Z,1006.65
2018-03-14T03:54:31.878Z,1006.65
2018-03-14T03:55:31.834Z,1006.65
2018-03-14T03:56:31.829Z,1006.63
2018-03-14T03:57:31.745Z,1006.66
2018-03-14T03:58:31.719Z,1006.65
2018-03-14T03:59:31.669Z,1006.67
2018-03-14T04:00:31.624Z,1006.65
2018-03-14T04:01:31.596Z,1006.65
2018-03-14T04:02:31.569Z,1006.63
2018-03-14T04:03:41.856Z,1006.61
2018-03-14T04:04:31.469Z,1006.60
2018-03-14T04:05:31.417Z,1006.58
2018-03-14T04:06:31.375Z,1006.58
2018-03-14T04:07:31.375Z,1006.60
2018-03-14T04:08:31.295Z,1006.58
2018-03-14T04:09:31.254Z,1006.61
2018-03-14T04:10:31.203Z,1006.58
2018-03-14T04:11:31.164Z,1006.60
2018-03-14T04:12:31.120Z,1006.60
2018-03-14T04:13:31.121Z,1006.58
2018-03-14T04:14:31.042Z,1006.56
2018-03-14T04:15:30.998Z,1006.61
2018-03-14T04:16:30.961Z,1006.60
2018-03-14T04:17:30.910Z,1006.62
2018-03-14T04:18:30.877Z,1006.63
2018-03-14T04:19:30.861Z,1006.67
2018-03-14T04:20:30.788Z,1006.64
2018-03-14T04:21:30.744Z,1006.69
2018-03-14T04:22:30.713Z,1006.63
2018-03-14T04:23:30.673Z,1006.69
2018-03-14T04:24:40.415Z,1006.67
2018-03-14T04:25:30.574Z,1006.69
2018-03-14T04:26:30.544Z,1006.68
2018-03-14T04:27:30.496Z,1006.68
2018-03-14T04:28:30.452Z,1006.74
2018-03-14T04:29:30.426Z,1006.70
2018-03-14T04:30:30.401Z,1006.73
2018-03-14T04:31:30.347Z,1006.75
2018-03-14T04:32:30.286Z,1006.75
2018-03-14T04:33:30.254Z,1006.76
2018-03-14T04:34:30.206Z,1006.75
2018-03-14T04:35:30.166Z,1006.75
2018-03-14T04:36:30.145Z,1006.78
2018-03-14T04:37:30.086Z,1006.74
2018-03-14T04:38:30.034Z,1006.71
2018-03-14T04:39:30.008Z,1006.73
2018-03-14T04:40:29.956Z,1006.73
2018-03-14T04:41:29.921Z,1006.73
2018-03-14T04:42:29.901Z,1006.75
2018-03-14T04:43:29.828Z,1006.70
2018-03-14T04:44:29.785Z,1006.70
2018-03-14T04:45:29.738Z,1006.71
2018-03-14T04:46:29.702Z,1006.72
2018-03-14T04:47:29.689Z,1006.72
2018-03-14T04:48:29.619Z,1006.77
2018-03-14T04:49:29.632Z,1006.76
2018-03-14T04:50:29.536Z,1006.72
2018-03-14T04:51:29.494Z,1006.72
2018-03-14T04:52:29.465Z,1006.68
2018-03-14T04:53:29.444Z,1006.68
2018-03-14T04:54:29.379Z,1006.67
2018-03-14T04:55:29.332Z,1006.69
2018-03-14T04:56:29.291Z,1006.70
2018-03-14T04:57:29.240Z,1006.70
2018-03-14T04:58:29.213Z,1006.69
2018-03-14T04:59:29.182Z,1006.71
2018-03-14T05:00:29.110Z,1006.72
2018-03-14T05:01:29.075Z,1006.73
2018-03-14T05:02:29.038Z,1006.73
2018-03-14T05:03:28.995Z,1006.77
2018-03-14T05:04:28.985Z,1006.76
2018-03-14T05:05:28.903Z,1006.81
2018-03-14T05:06:28.871Z,1006.81
2018-03-14T05:07:28.890Z,1006.80
2018-03-14T05:08:28.778Z,1006.81
2018-03-14T05:09:28.775Z,1006.83
2018-03-14T05:10:28.702Z,1006.81
2018-03-14T05:11:28.665Z,1006.82
2018-03-14T05:12:28.607Z,1006.80
2018-03-14T05:13:28.577Z,1006.81
2018-03-14T05:14:28.560Z,1006.81
2018-03-14T05:15:28.500Z,1006.80
2018-03-14T05:16:28.454Z,1006.83
2018-03-14T05:17:28.412Z,1006.85
2018-03-14T05:18:28.366Z,1006.83
2018-03-14T05:19:28.336Z,1006.87
2018-03-14T05:20:28.312Z,1006.82
2018-03-14T05:21:28.245Z,1006.88
2018-03-14T05:22:28.193Z,1006.85
2018-03-14T05:23:28.162Z,1006.84
2018-03-14T05:24:28.114Z,1006.85
2018-03-14T05:25:28.073Z,1006.84
2018-03-14T05:26:28.069Z,1006.87
2018-03-14T05:27:27.990Z,1006.86
2018-03-14T05:28:27.950Z,1006.80
2018-03-14T05:29:27.898Z,1006.84
2018-03-14T05:30:27.870Z,1006.78
2018-03-14T05:31:27.858Z,1006.79
2018-03-14T05:32:27.791Z,1006.81
2018-03-14T05:33:27.743Z,1006.79
2018-03-14T05:34:27.703Z,1006.75
2018-03-14T05:35:27.659Z,1006.75
2018-03-14T05:36:27.619Z,1006.76
2018-03-14T05:37:27.596Z,1006.75
2018-03-14T05:38:27.537Z,1006.75
2018-03-14T05:39:27.487Z,1006.77
2018-03-14T05:40:27.443Z,1006.77
2018-03-14T05:41:27.473Z,1006.78
2018-03-14T05:42:27.358Z,1006.81
2018-03-14T05:43:27.344Z,1006.81
2018-03-14T05:44:27.279Z,1006.83
2018-03-14T05:45:27.237Z,1006.82
2018-03-14T05:46:27.197Z,1006.81
2018-03-14T05:47:27.146Z,1006.81
2018-03-14T05:48:27.144Z,1006.84
2018-03-14T05:49:27.064Z,1006.87
2018-03-14T05:50:27.033Z,1006.85
2018-03-14T05:51:26.988Z,1006.88
2018-03-14T05:52:26.940Z,1006.90
2018-03-14T05:53:26.898Z,1006.89
2018-03-14T05:54:26.889Z,1006.91
2018-03-14T05:55:26.818Z,1006.94
2018-03-14T05:56:26.776Z,1006.92
2018-03-14T05:57:26.733Z,1006.98
2018-03-14T05:58:26.696Z,1006.93
2018-03-14T05:59:26.646Z,1006.93
2018-03-14T06:00:26.638Z,1006.96
2018-03-14T06:01:26.567Z,1006.96
2018-03-14T06:02:27.422Z,1006.96
2018-03-14T06:03:26.485Z,1006.97
2018-03-14T06:04:26.446Z,1006.95
2018-03-14T06:05:26.394Z,1006.96
2018-03-14T06:06:26.373Z,1006.98
2018-03-14T06:07:26.312Z,1006.93
2018-03-14T06:08:26.278Z,1006.96
2018-03-14T06:09:26.235Z,1006.95
2018-03-14T06:10:26.186Z,1006.95
2018-03-14T06:11:26.176Z,1007.00
2018-03-14T06:12:26.113Z,1006.99
2018-03-14T06:13:26.073Z,1007.00
2018-03-14T06:14:26.016Z,1007.03
2018-03-14T06:15:25.977Z,1007.01
2018-03-14T06:16:25.978Z,1007.04
2018-03-14T06:17:25.926Z,1007.09
2018-03-14T06:18:25.848Z,1007.09
2018-03-14T06:19:25.812Z,1007.12
2018-03-14T06:20:25.774Z,1007.14
2018-03-14T06:21:25.721Z,1007.11
2018-03-14T06:22:25.696Z,1007.15
2018-03-14T06:23:25.667Z,1007.17
2018-03-14T06:24:25.593Z,1007.15
2018-03-14T06:25:25.557Z,1007.19
2018-03-14T06:26:25.505Z,1007.19
2018-03-14T06:27:25.468Z,1007.21
2018-03-14T06:28:25.447Z,1007.21
2018-03-14T06:29:25.386Z,1007.22
2018-03-14T06:30:25.341Z,1007.25
2018-03-14T06:31:25.291Z,1007.26
2018-03-14T06:32:25.251Z,1007.26
2018-03-14T06:33:25.250Z,1007.25
2018-03-14T06:34:25.180Z,1007.25
2018-03-14T06:35:25.136Z,1007.26
2018-03-14T06:36:25.090Z,1007.31
2018-03-14T06:37:25.040Z,1007.26
2018-03-14T06:38:25.000Z,1007.27
2018-03-14T06:39:24.997Z,1007.30
2018-03-14T06:40:24.926Z,1007.27
2018-03-14T06:41:24.876Z,1007.26
2018-03-14T06:42:24.845Z,1007.26
2018-03-14T06:43:24.793Z,1007.28
2018-03-14T06:44:24.752Z,1007.23
2018-03-14T06:45:24.730Z,1007.24
2018-03-14T06:46:24.673Z,1007.21
2018-03-14T06:47:24.633Z,1007.26
2018-03-14T06:48:24.586Z,1007.24
2018-03-14T06:49:24.548Z,1007.22
2018-03-14T06:50:24.527Z,1007.26
2018-03-14T06:51:24.457Z,1007.33
2018-03-14T06:52:24.426Z,1007.38
2018-03-14T06:53:24.383Z,1007.43
2018-03-14T06:54:24.339Z,1007.41
2018-03-14T06:55:24.300Z,1007.44
2018-03-14T06:56:24.268Z,1007.44
2018-03-14T06:57:24.214Z,1007.48
2018-03-14T06:58:24.174Z,1007.51
2018-03-14T06:59:24.133Z,1007.46
2018-03-14T07:00:24.086Z,1007.52
2018-03-14T07:01:24.078Z,1007.49
2018-03-14T07:02:24.007Z,1007.55
2018-03-14T07:03:23.965Z,1007.53
2018-03-14T07:04:23.930Z,1007.46
2018-03-14T07:05:23.890Z,1007.47
2018-03-14T07:06:23.845Z,1007.47
2018-03-14T07:07:23.843Z,1007.47
2018-03-14T07:08:23.767Z,1007.50
2018-03-14T07:09:23.732Z,1007.49
2018-03-14T07:10:23.689Z,1007.49
2018-03-14T07:11:23.685Z,1007.50
2018-03-14T07:12:23.611Z,1007.60
2018-03-14T07:13:23.595Z,1007.67
2018-03-14T07:14:23.534Z,1007.64
2018-03-14T07:15:23.499Z,1007.62
2018-03-14T07:16:23.454Z,1007.63
2018-03-14T07:17:23.424Z,1007.61
2018-03-14T07:18:23.394Z,1007.55
2018-03-14T07:19:23.342Z,1007.54
2018-03-14T07:20:23.292Z,1007.54
2018-03-14T07:21:23.256Z,1007.49
2018-03-14T07:22:23.219Z,1007.46
2018-03-14T07:23:23.178Z,1007.48
2018-03-14T07:24:23.162Z,1007.65
2018-03-14T07:25:23.094Z,1007.66
2018-03-14T07:26:23.068Z,1007.70
2018-03-14T07:27:23.016Z,1007.87
2018-03-14T07:28:22.976Z,1007.79
2018-03-14T07:29:22.946Z,1007.83
2018-03-14T07:30:22.930Z,1007.83
2018-03-14T07:31:22.862Z,1007.82
2018-03-14T07:32:22.830Z,1007.83
2018-03-14T07:33:22.778Z,1007.89
2018-03-14T07:34:22.747Z,1007.89
2018-03-14T07:35:22.737Z,1007.93
2018-03-14T07:36:22.740Z,1007.94
2018-03-14T07:37:22.630Z,1007.91
2018-03-14T07:38:22.613Z,1008.03
2018-03-14T07:39:22.561Z,1008.24
2018-03-14T07:40:22.520Z,1008.30
2018-03-14T07:41:22.580Z,1008.19
2018-03-14T07:42:22.438Z,1008.04
2018-03-14T07:43:22.404Z,1008.04
2018-03-14T07:44:22.378Z,1008.04
2018-03-14T07:45:22.327Z,1007.96
2018-03-14T07:46:22.302Z,1007.83
2018-03-14T07:47:22.286Z,1007.92
2018-03-14T07:48:22.218Z,1007.98
2018-03-14T07:49:22.193Z,1008.02
2018-03-14T07:50:22.155Z,1007.97
2018-03-14T07:51:22.118Z,1008.01
2018-03-14T07:52:22.080Z,1007.98
2018-03-14T07:53:22.072Z,1008.03
2018-03-14T07:54:22.007Z,1008.12
2018-03-14T07:55:21.968Z,1008.07
2018-03-14T07:56:21.968Z,1008.20
2018-03-14T07:57:21.906Z,1008.14
2018-03-14T07:58:21.887Z,1008.20
2018-03-14T07:59:21.829Z,1008.17
2018-03-14T08:00:21.798Z,1008.11
2018-03-14T08:01:21.758Z,1008.19
2018-03-14T08:02:21.736Z,1007.97
2018-03-14T08:03:21.714Z,1008.17
2018-03-14T08:04:21.713Z,1008.13
2018-03-14T08:05:21.633Z,1008.14
2018-03-14T08:06:21.590Z,1007.78
2018-03-14T08:07:21.557Z,1007.75
2018-03-14T08:08:21.544Z,1007.73
2018-03-14T08:09:32.961Z,1008.04
2018-03-14T08:10:21.449Z,1007.91
2018-03-14T08:11:21.416Z,1007.81
2018-03-14T08:12:21.410Z,1008.16
2018-03-14T08:13:21.363Z,1008.13
2018-03-14T08:14:21.334Z,1008.19
2018-03-14T08:15:21.276Z,1008.33
2018-03-14T08:16:21.239Z,1008.46
2018-03-14T08:17:21.196Z,1008.48
2018-03-14T08:18:21.165Z,1008.39
2018-03-14T08:19:21.163Z,1008.41
2018-03-14T08:20:21.102Z,1008.42
2018-03-14T08:21:21.064Z,1008.38
2018-03-14T08:22:21.057Z,1008.44
2018-03-14T08:23:20.998Z,1008.31
2018-03-14T08:24:20.954Z,1007.92
2018-03-14T08:25:20.951Z,1007.82
2018-03-14T08:26:20.898Z,1007.85
2018-03-14T08:27:20.866Z,1007.81
2018-03-14T08:28:20.821Z,1007.78
2018-03-14T08:29:20.787Z,1007.77
2018-03-14T08:30:20.794Z,1007.82
2018-03-14T08:31:20.716Z,1007.80
2018-03-14T08:32:20.689Z,1007.83
2018-03-14T08:33:20.666Z,1007.77
2018-03-14T08:34:20.619Z,1007.76
2018-03-14T08:35:20.590Z,1007.75
2018-03-14T08:36:20.586Z,1007.73
2018-03-14T08:37:20.532Z,1007.67
2018-03-14T08:38:20.484Z,1007.71
2018-03-14T08:39:20.460Z,1007.75
2018-03-14T08:40:20.408Z,1007.72
2018-03-14T08:41:20.373Z,1007.75
2018-03-14T08:42:20.368Z,1008.33
2018-03-14T08:43:20.306Z,1008.43
2018-03-14T08:44:20.278Z,1008.50
2018-03-14T08:45:20.243Z,1008.48
2018-03-14T08:46:20.204Z,1008.55
2018-03-14T08:47:20.196Z,1008.60
2018-03-14T08:48:20.134Z,1008.63
2018-03-14T08:49:20.084Z,1008.66
2018-03-14T08:50:20.084Z,1008.86
2018-03-14T08:51:20.023Z,1008.88
2018-03-14T08:52:19.990Z,1008.93
2018-03-14T08:53:19.969Z,1008.93
2018-03-14T08:54:19.974Z,1008.86
2018-03-14T08:55:19.878Z,1008.60
2018-03-14T08:56:19.860Z,1008.56
2018-03-14T08:57:19.816Z,1008.55
2018-03-14T08:58:19.779Z,1008.51
2018-03-14T08:59:19.774Z,1008.55
2018-03-14T09:00:19.716Z,1008.54
2018-03-14T09:01:19.681Z,1008.35
2018-03-14T09:02:19.648Z,1008.56
2018-03-14T09:03:19.607Z,1008.63
2018-03-14T09:04:19.620Z,1008.66
2018-03-14T09:05:19.557Z,1008.66
2018-03-14T09:06:19.516Z,1008.68
2018-03-14T09:07:19.527Z,1008.49
2018-03-14T09:08:19.456Z,1008.10
2018-03-14T09:09:19.428Z,1008.87
2018-03-14T09:10:19.425Z,1008.84
2018-03-14T09:11:19.358Z,1008.81
2018-03-14T09:12:19.322Z,1008.00
2018-03-14T09:13:19.295Z,1008.85
2018-03-14T09:14:19.263Z,1008.93
2018-03-14T09:15:19.240Z,1008.99
2018-03-14T09:16:19.249Z,1008.80
2018-03-14T09:17:19.168Z,1008.80
2018-03-14T09:18:19.137Z,1008.83
2018-03-14T09:19:19.165Z,1008.85
2018-03-14T09:20:19.077Z,1008.83
2018-03-14T09:21:19.044Z,1008.89
2018-03-14T09:22:19.041Z,1008.95
2018-03-14T09:23:18.984Z,1008.98
2018-03-14T09:24:18.955Z,1008.94
2018-03-14T09:25:18.923Z,1008.93
2018-03-14T09:26:18.900Z,1008.92
2018-03-14T09:27:18.884Z,1008.85
2018-03-14T09:28:18.835Z,1008.85
2018-03-14T09:29:18.801Z,1008.65
2018-03-14T09:30:18.767Z,1008.56
2018-03-14T09:31:18.741Z,1008.12
2018-03-14T09:32:18.730Z,1008.05
2018-03-14T09:33:18.721Z,1007.96
2018-03-14T09:34:18.656Z,1007.99
2018-03-14T09:35:18.622Z,1007.96
2018-03-14T09:36:18.599Z,1008.01
2018-03-14T09:37:18.595Z,1008.35
2018-03-14T09:38:18.530Z,1008.61
2018-03-14T09:39:18.501Z,1008.63
2018-03-14T09:40:18.470Z,1008.70
2018-03-14T09:41:18.444Z,1008.71
2018-03-14T09:42:18.407Z,1008.78
2018-03-14T09:43:18.407Z,1008.87
2018-03-14T09:44:18.355Z,1008.85
2018-03-14T09:45:18.337Z,1008.88
2018-03-14T09:46:18.282Z,1008.84
2018-03-14T09:47:18.249Z,1008.88
2018-03-14T09:48:18.229Z,1008.89
2018-03-14T09:49:18.216Z,1009.03
2018-03-14T09:50:18.156Z,1009.14
2018-03-14T09:51:18.132Z,1009.07
2018-03-14T09:52:18.087Z,1009.15
2018-03-14T09:53:18.069Z,1009.13
2018-03-14T09:54:18.062Z,1009.13
2018-03-14T09:55:18.033Z,1009.11
2018-03-14T09:56:17.990Z,1009.09
2018-03-14T09:57:17.943Z,1009.13
2018-03-14T09:58:17.923Z,1009.16
2018-03-14T09:59:17.883Z,1009.13
2018-03-14T10:00:17.884Z,1009.15
2018-03-14T10:01:17.830Z,1009.16
2018-03-14T10:02:17.795Z,1009.15
2018-03-14T10:03:17.768Z,1009.14
2018-03-14T10:04:17.734Z,1009.13
2018-03-14T10:05:17.710Z,1009.11
2018-03-14T10:06:17.702Z,1009.13
2018-03-14T10:07:17.647Z,1009.10
2018-03-14T10:08:17.618Z,1009.13
2018-03-14T10:09:17.593Z,1009.17
2018-03-14T10:10:17.554Z,1009.21
2018-03-14T10:11:17.566Z,1009.19
2018-03-14T10:12:17.494Z,1009.17
2018-03-14T10:13:17.494Z,1009.15
2018-03-14T10:14:17.446Z,1009.15
2018-03-14T10:15:17.421Z,1009.14
2018-03-14T10:16:17.380Z,1009.18
2018-03-14T10:17:17.383Z,1008.68
2018-03-14T10:18:17.336Z,1008.96
2018-03-14T10:19:17.324Z,1009.16
2018-03-14T10:20:17.270Z,1009.18
2018-03-14T10:21:17.243Z,1009.18
2018-03-14T10:22:17.218Z,1009.04
2018-03-14T10:23:17.213Z,1008.29
2018-03-14T10:24:17.158Z,1008.26
2018-03-14T10:25:17.130Z,1008.18
2018-03-14T10:26:17.102Z,1008.15
2018-03-14T10:27:17.071Z,1008.08
2018-03-14T10:28:17.050Z,1008.14
2018-03-14T10:29:17.048Z,1008.09
2018-03-14T10:30:16.986Z,1008.07
2018-03-14T10:31:16.955Z,1008.12
2018-03-14T10:32:16.931Z,1008.33
2018-03-14T10:33:16.912Z,1008.51
2018-03-14T10:34:16.863Z,1008.41
2018-03-14T10:35:16.901Z,1008.29
2018-03-14T10:36:16.800Z,1008.82
2018-03-14T10:37:16.768Z,1008.24
2018-03-14T10:38:16.768Z,1008.16
2018-03-14T10:39:16.718Z,1008.09
2018-03-14T10:40:16.716Z,1008.17
2018-03-14T10:41:16.648Z,1008.12
2018-03-14T10:42:16.621Z,1008.06
2018-03-14T10:43:16.589Z,1008.06
2018-03-14T10:44:16.547Z,1008.03
2018-03-14T10:45:16.525Z,1007.97
2018-03-14T10:46:16.515Z,1008.09
2018-03-14T10:47:16.451Z,1008.12
2018-03-14T10:48:16.426Z,1008.51
2018-03-14T10:49:16.414Z,1008.53
2018-03-14T10:50:16.364Z,1008.93
2018-03-14T10:51:16.365Z,1009.00
2018-03-14T10:52:16.291Z,1009.09
2018-03-14T10:53:16.257Z,1008.93
2018-03-14T10:54:16.218Z,1008.89
2018-03-14T10:55:16.198Z,1008.86
2018-03-14T10:56:16.156Z,1008.84
2018-03-14T10:57:16.149Z,1008.80
2018-03-14T10:58:16.097Z,1008.85
2018-03-14T10:59:16.056Z,1008.87
2018-03-14T11:00:16.028Z,1008.79
2018-03-14T11:01:15.993Z,1008.79
2018-03-14T11:02:15.972Z,1008.75
2018-03-14T11:03:15.963Z,1008.75
2018-03-14T11:04:15.901Z,1008.72
2018-03-14T11:05:15.887Z,1008.75
2018-03-14T11:06:15.846Z,1008.75
2018-03-14T11:07:15.813Z,1008.85
2018-03-14T11:08:15.803Z,1008.82
2018-03-14T11:09:15.745Z,1008.79
2018-03-14T11:10:15.727Z,1008.70
2018-03-14T11:11:15.690Z,1008.60
2018-03-14T11:12:15.671Z,1008.65
2018-03-14T11:13:15.659Z,1008.69
2018-03-14T11:14:15.596Z,1008.71
2018-03-14T11:15:15.573Z,1008.64
2018-03-14T11:16:15.553Z,1008.59
2018-03-14T11:17:15.515Z,1008.59
2018-03-14T11:18:15.513Z,1008.64
2018-03-14T11:19:15.457Z,1008.68
2018-03-14T11:20:15.425Z,1008.55
2018-03-14T11:21:15.397Z,1008.50
2018-03-14T11:22:15.373Z,1008.44
2018-03-14T11:23:15.361Z,1008.44
2018-03-14T11:24:15.305Z,1008.40
2018-03-14T11:25:15.286Z,1008.39
2018-03-14T11:26:15.249Z,1008.40
2018-03-14T11:27:15.222Z,1008.47
2018-03-14T11:28:15.182Z,1008.50
2018-03-14T11:29:15.181Z,1008.50
2018-03-14T11:30:15.128Z,1008.48
2018-03-14T11:31:15.101Z,1008.44
2018-03-14T11:32:15.077Z,1008.48
2018-03-14T11:33:15.050Z,1008.50
2018-03-14T11:34:15.011Z,1008.51
2018-03-14T11:35:15.024Z,1008.46
2018-03-14T11:36:14.953Z,1008.50
2018-03-14T11:37:14.932Z,1008.48
2018-03-14T11:38:14.888Z,1008.48
2018-03-14T11:39:14.878Z,1008.40
2018-03-14T11:40:14.866Z,1008.39
2018-03-14T11:41:14.803Z,1008.34
2018-03-14T11:42:14.782Z,1008.33
2018-03-14T11:43:14.753Z,1008.33
2018-03-14T11:44:14.723Z,1008.33
2018-03-14T11:45:14.690Z,1008.33
2018-03-14T11:46:14.693Z,1008.37
2018-03-14T11:47:14.643Z,1008.34
2018-03-14T11:48:14.603Z,1008.35
2018-03-14T11:49:14.579Z,1008.36
2018-03-14T11:50:14.550Z,1008.05
2018-03-14T11:51:14.526Z,1008.04
2018-03-14T11:52:14.531Z,1008.00
2018-03-14T11:53:14.474Z,1008.02
2018-03-14T11:54:14.451Z,1008.01
2018-03-14T11:55:14.408Z,1008.03
2018-03-14T11:56:14.375Z,1007.53
2018-03-14T11:57:14.402Z,1007.43
2018-03-14T11:58:14.356Z,1008.00
2018-03-14T11:59:14.295Z,1007.96
2018-03-14T12:00:14.276Z,1007.90
2018-03-14T12:01:14.236Z,1007.66
2018-03-14T12:02:14.213Z,1007.32
2018-03-14T12:03:14.212Z,1007.59
2018-03-14T12:04:14.207Z,1007.77
2018-03-14T12:05:14.126Z,1007.77